sensor_id;sensor_type;location;lat;lon;timestamp;P1;durP1;ratioP1;P2;durP2;ratioP2
39674;SDS011;27790;50.840;4.386;2022-07-29T00:00:34;5.03;;;1.65;;
39674;SDS011;27790;50.840;4.386;2022-07-29T00:03:01;3.15;;;1.80;;
39674;SDS011;27790;50.840;4.386;2022-07-29T00:05:27;8.68;;;2.28;;
39674;SDS011;27790;50.840;4.386;2022-07-29T00:07:53;7.15;;;1.90;;
39674;SDS011;27790;50.840;4.386;2022-07-29T00:10:18;5.07;;;1.30;;
39674;SDS011;27790;50.840;4.386;2022-07-29T00:12:44;2.35;;;1.30;;
39674;SDS011;27790;50.840;4.386;2022-07-29T00:15:09;2.10;;;1.20;;
39674;SDS011;27790;50.840;4.386;2022-07-29T00:17:35;5.95;;;2.03;;
39674;SDS011;27790;50.840;4.386;2022-07-29T00:20:01;5.93;;;1.58;;
39674;SDS011;27790;50.840;4.386;2022-07-29T00:22:26;6.05;;;1.45;;
39674;SDS011;27790;50.840;4.386;2022-07-29T00:24:52;4.25;;;2.13;;
39674;SDS011;27790;50.840;4.386;2022-07-29T00:27:17;4.88;;;1.88;;
39674;SDS011;27790;50.840;4.386;2022-07-29T00:29:43;11.07;;;2.70;;
39674;SDS011;27790;50.840;4.386;2022-07-29T00:32:09;3.90;;;1.50;;
39674;SDS011;27790;50.840;4.386;2022-07-29T00:34:35;3.53;;;1.50;;
39674;SDS011;27790;50.840;4.386;2022-07-29T00:37:11;4.45;;;1.77;;
39674;SDS011;27790;50.840;4.386;2022-07-29T00:39:37;5.50;;;1.70;;
39674;SDS011;27790;50.840;4.386;2022-07-29T00:42:03;3.38;;;1.77;;
39674;SDS011;27790;50.840;4.386;2022-07-29T00:44:29;7.47;;;1.90;;
39674;SDS011;27790;50.840;4.386;2022-07-29T00:47:00;3.67;;;1.58;;
39674;SDS011;27790;50.840;4.386;2022-07-29T00:49:26;5.90;;;1.80;;
39674;SDS011;27790;50.840;4.386;2022-07-29T00:51:51;3.05;;;1.92;;
39674;SDS011;27790;50.840;4.386;2022-07-29T00:54:17;1.83;;;1.33;;
39674;SDS011;27790;50.840;4.386;2022-07-29T00:56:43;5.78;;;1.83;;
39674;SDS011;27790;50.840;4.386;2022-07-29T00:59:09;6.00;;;1.67;;
39674;SDS011;27790;50.840;4.386;2022-07-29T01:01:34;5.70;;;1.80;;
39674;SDS011;27790;50.840;4.386;2022-07-29T01:04:00;5.43;;;1.80;;
39674;SDS011;27790;50.840;4.386;2022-07-29T01:06:25;3.35;;;2.03;;
39674;SDS011;27790;50.840;4.386;2022-07-29T01:08:51;4.03;;;1.50;;
39674;SDS011;27790;50.840;4.386;2022-07-29T01:11:17;5.60;;;1.50;;
39674;SDS011;27790;50.840;4.386;2022-07-29T01:13:44;7.50;;;2.03;;
39674;SDS011;27790;50.840;4.386;2022-07-29T01:16:18;7.40;;;1.83;;
39674;SDS011;27790;50.840;4.386;2022-07-29T01:18:56;5.85;;;1.80;;
39674;SDS011;27790;50.840;4.386;2022-07-29T01:29:48;5.53;;;1.90;;
39674;SDS011;27790;50.840;4.386;2022-07-29T01:32:19;4.93;;;1.67;;
39674;SDS011;27790;50.840;4.386;2022-07-29T01:37:29;4.65;;;1.83;;
39674;SDS011;27790;50.840;4.386;2022-07-29T01:40:15;4.95;;;1.50;;
39674;SDS011;27790;50.840;4.386;2022-07-29T01:42:54;2.22;;;1.67;;
39674;SDS011;27790;50.840;4.386;2022-07-29T01:45:31;6.68;;;2.10;;
39674;SDS011;27790;50.840;4.386;2022-07-29T01:48:06;2.03;;;1.83;;
39674;SDS011;27790;50.840;4.386;2022-07-29T01:53:23;4.43;;;1.83;;
39674;SDS011;27790;50.840;4.386;2022-07-29T01:55:51;4.53;;;1.52;;
39674;SDS011;27790;50.840;4.386;2022-07-29T01:58:20;2.55;;;1.73;;
39674;SDS011;27790;50.840;4.386;2022-07-29T02:00:48;4.82;;;1.38;;
39674;SDS011;27790;50.840;4.386;2022-07-29T02:03:15;7.50;;;2.47;;
39674;SDS011;27790;50.840;4.386;2022-07-29T02:05:43;6.07;;;1.55;;
39674;SDS011;27790;50.840;4.386;2022-07-29T02:08:11;3.00;;;1.52;;
39674;SDS011;27790;50.840;4.386;2022-07-29T02:10:39;4.38;;;1.50;;
39674;SDS011;27790;50.840;4.386;2022-07-29T02:13:07;2.38;;;1.70;;
39674;SDS011;27790;50.840;4.386;2022-07-29T02:15:34;10.57;;;2.40;;
39674;SDS011;27790;50.840;4.386;2022-07-29T02:18:02;6.65;;;2.28;;
39674;SDS011;27790;50.840;4.386;2022-07-29T02:20:37;5.63;;;1.20;;
39674;SDS011;27790;50.840;4.386;2022-07-29T02:23:05;6.13;;;1.80;;
39674;SDS011;27790;50.840;4.386;2022-07-29T02:25:34;2.40;;;1.50;;
39674;SDS011;27790;50.840;4.386;2022-07-29T02:27:59;7.40;;;1.52;;
39674;SDS011;27790;50.840;4.386;2022-07-29T02:30:26;2.53;;;1.70;;
39674;SDS011;27790;50.840;4.386;2022-07-29T02:32:53;8.90;;;1.95;;
39674;SDS011;27790;50.840;4.386;2022-07-29T02:35:20;2.65;;;1.50;;
39674;SDS011;27790;50.840;4.386;2022-07-29T02:37:46;5.30;;;2.13;;
39674;SDS011;27790;50.840;4.386;2022-07-29T02:40:34;2.45;;;1.60;;
39674;SDS011;27790;50.840;4.386;2022-07-29T02:43:02;2.08;;;1.60;;
39674;SDS011;27790;50.840;4.386;2022-07-29T02:45:31;1.88;;;1.48;;
39674;SDS011;27790;50.840;4.386;2022-07-29T02:47:57;2.00;;;1.58;;
39674;SDS011;27790;50.840;4.386;2022-07-29T02:50:31;3.90;;;1.52;;
39674;SDS011;27790;50.840;4.386;2022-07-29T02:53:05;4.03;;;2.50;;
39674;SDS011;27790;50.840;4.386;2022-07-29T02:58:27;2.33;;;1.52;;
39674;SDS011;27790;50.840;4.386;2022-07-29T03:00:56;6.32;;;2.30;;
39674;SDS011;27790;50.840;4.386;2022-07-29T03:03:25;2.38;;;1.90;;
39674;SDS011;27790;50.840;4.386;2022-07-29T03:05:57;3.30;;;1.95;;
39674;SDS011;27790;50.840;4.386;2022-07-29T03:08:24;7.35;;;2.05;;
39674;SDS011;27790;50.840;4.386;2022-07-29T03:10:51;11.02;;;1.80;;
39674;SDS011;27790;50.840;4.386;2022-07-29T03:13:18;3.85;;;1.77;;
39674;SDS011;27790;50.840;4.386;2022-07-29T03:15:45;3.67;;;2.17;;
39674;SDS011;27790;50.840;4.386;2022-07-29T03:18:12;4.32;;;1.98;;
39674;SDS011;27790;50.840;4.386;2022-07-29T03:20:39;10.63;;;1.75;;
39674;SDS011;27790;50.840;4.386;2022-07-29T03:23:05;7.68;;;2.10;;
39674;SDS011;27790;50.840;4.386;2022-07-29T03:25:31;8.23;;;2.03;;
39674;SDS011;27790;50.840;4.386;2022-07-29T03:27:56;7.18;;;1.50;;
39674;SDS011;27790;50.840;4.386;2022-07-29T03:30:22;4.30;;;1.77;;
39674;SDS011;27790;50.840;4.386;2022-07-29T03:32:48;5.03;;;2.00;;
39674;SDS011;27790;50.840;4.386;2022-07-29T03:35:15;6.93;;;2.15;;
39674;SDS011;27790;50.840;4.386;2022-07-29T03:37:47;2.80;;;1.67;;
39674;SDS011;27790;50.840;4.386;2022-07-29T03:40:14;4.50;;;1.70;;
39674;SDS011;27790;50.840;4.386;2022-07-29T03:42:44;3.92;;;1.90;;
39674;SDS011;27790;50.840;4.386;2022-07-29T03:45:12;11.35;;;2.10;;
39674;SDS011;27790;50.840;4.386;2022-07-29T03:47:43;11.02;;;2.13;;
39674;SDS011;27790;50.840;4.386;2022-07-29T03:50:13;6.85;;;1.95;;
39674;SDS011;27790;50.840;4.386;2022-07-29T03:52:41;7.40;;;2.28;;
39674;SDS011;27790;50.840;4.386;2022-07-29T03:55:07;6.82;;;2.05;;
39674;SDS011;27790;50.840;4.386;2022-07-29T03:57:34;6.60;;;2.15;;
39674;SDS011;27790;50.840;4.386;2022-07-29T04:00:01;5.05;;;2.17;;
39674;SDS011;27790;50.840;4.386;2022-07-29T04:02:28;7.82;;;2.75;;
39674;SDS011;27790;50.840;4.386;2022-07-29T04:04:54;6.65;;;2.20;;
39674;SDS011;27790;50.840;4.386;2022-07-29T04:07:20;9.18;;;2.80;;
39674;SDS011;27790;50.840;4.386;2022-07-29T04:09:45;4.90;;;2.08;;
39674;SDS011;27790;50.840;4.386;2022-07-29T04:12:11;5.05;;;2.20;;
39674;SDS011;27790;50.840;4.386;2022-07-29T04:14:37;5.35;;;2.05;;
39674;SDS011;27790;50.840;4.386;2022-07-29T04:17:03;6.13;;;2.00;;
39674;SDS011;27790;50.840;4.386;2022-07-29T04:19:29;4.47;;;2.25;;
39674;SDS011;27790;50.840;4.386;2022-07-29T04:21:55;8.15;;;2.30;;
39674;SDS011;27790;50.840;4.386;2022-07-29T04:24:21;14.85;;;2.15;;
39674;SDS011;27790;50.840;4.386;2022-07-29T04:26:47;6.32;;;3.00;;
39674;SDS011;27790;50.840;4.386;2022-07-29T04:29:13;9.02;;;3.00;;
39674;SDS011;27790;50.840;4.386;2022-07-29T04:31:39;8.15;;;2.28;;
39674;SDS011;27790;50.840;4.386;2022-07-29T04:34:06;4.45;;;2.38;;
39674;SDS011;27790;50.840;4.386;2022-07-29T04:36:31;4.97;;;2.50;;
39674;SDS011;27790;50.840;4.386;2022-07-29T04:38:57;8.88;;;2.25;;
39674;SDS011;27790;50.840;4.386;2022-07-29T04:41:23;5.60;;;2.42;;
39674;SDS011;27790;50.840;4.386;2022-07-29T04:43:48;6.22;;;3.15;;
39674;SDS011;27790;50.840;4.386;2022-07-29T04:46:14;6.00;;;2.22;;
39674;SDS011;27790;50.840;4.386;2022-07-29T04:48:40;5.20;;;2.78;;
39674;SDS011;27790;50.840;4.386;2022-07-29T04:51:06;9.18;;;3.10;;
39674;SDS011;27790;50.840;4.386;2022-07-29T04:53:32;6.10;;;2.80;;
39674;SDS011;27790;50.840;4.386;2022-07-29T04:55:57;5.20;;;2.28;;
39674;SDS011;27790;50.840;4.386;2022-07-29T04:58:23;8.75;;;3.13;;
39674;SDS011;27790;50.840;4.386;2022-07-29T05:00:50;5.82;;;3.60;;
39674;SDS011;27790;50.840;4.386;2022-07-29T05:03:15;5.95;;;2.88;;
39674;SDS011;27790;50.840;4.386;2022-07-29T05:05:41;6.22;;;2.85;;
39674;SDS011;27790;50.840;4.386;2022-07-29T05:08:07;10.80;;;2.78;;
39674;SDS011;27790;50.840;4.386;2022-07-29T05:10:33;6.90;;;2.55;;
39674;SDS011;27790;50.840;4.386;2022-07-29T05:13:02;8.93;;;3.30;;
39674;SDS011;27790;50.840;4.386;2022-07-29T05:15:29;11.88;;;2.65;;
39674;SDS011;27790;50.840;4.386;2022-07-29T05:17:54;5.20;;;2.90;;
39674;SDS011;27790;50.840;4.386;2022-07-29T05:20:20;7.57;;;2.97;;
39674;SDS011;27790;50.840;4.386;2022-07-29T05:22:50;8.93;;;3.08;;
39674;SDS011;27790;50.840;4.386;2022-07-29T05:25:16;9.70;;;3.20;;
39674;SDS011;27790;50.840;4.386;2022-07-29T05:27:42;5.65;;;2.70;;
39674;SDS011;27790;50.840;4.386;2022-07-29T05:30:07;8.63;;;2.88;;
39674;SDS011;27790;50.840;4.386;2022-07-29T05:32:33;9.50;;;3.03;;
39674;SDS011;27790;50.840;4.386;2022-07-29T05:34:59;7.68;;;3.08;;
39674;SDS011;27790;50.840;4.386;2022-07-29T05:37:25;9.00;;;3.28;;
39674;SDS011;27790;50.840;4.386;2022-07-29T05:39:50;6.55;;;2.97;;
39674;SDS011;27790;50.840;4.386;2022-07-29T05:42:16;4.93;;;2.95;;
39674;SDS011;27790;50.840;4.386;2022-07-29T05:44:41;4.03;;;2.83;;
39674;SDS011;27790;50.840;4.386;2022-07-29T05:47:07;8.02;;;3.03;;
39674;SDS011;27790;50.840;4.386;2022-07-29T05:49:32;4.78;;;2.80;;
39674;SDS011;27790;50.840;4.386;2022-07-29T05:51:58;3.42;;;3.13;;
39674;SDS011;27790;50.840;4.386;2022-07-29T05:54:24;9.38;;;2.92;;
39674;SDS011;27790;50.840;4.386;2022-07-29T05:56:50;11.40;;;3.15;;
39674;SDS011;27790;50.840;4.386;2022-07-29T05:59:16;6.45;;;3.10;;
39674;SDS011;27790;50.840;4.386;2022-07-29T06:01:41;4.55;;;3.08;;
39674;SDS011;27790;50.840;4.386;2022-07-29T06:04:10;4.25;;;2.65;;
39674;SDS011;27790;50.840;4.386;2022-07-29T06:06:35;5.60;;;2.67;;
39674;SDS011;27790;50.840;4.386;2022-07-29T06:09:02;5.28;;;3.08;;
39674;SDS011;27790;50.840;4.386;2022-07-29T06:11:27;8.43;;;3.38;;
39674;SDS011;27790;50.840;4.386;2022-07-29T06:13:53;6.40;;;3.15;;
39674;SDS011;27790;50.840;4.386;2022-07-29T06:16:19;4.97;;;3.25;;
39674;SDS011;27790;50.840;4.386;2022-07-29T06:18:44;8.98;;;3.72;;
39674;SDS011;27790;50.840;4.386;2022-07-29T06:21:10;5.13;;;3.17;;
39674;SDS011;27790;50.840;4.386;2022-07-29T06:23:37;8.88;;;3.97;;
39674;SDS011;27790;50.840;4.386;2022-07-29T06:26:03;9.85;;;3.58;;
39674;SDS011;27790;50.840;4.386;2022-07-29T06:28:29;4.63;;;3.20;;
39674;SDS011;27790;50.840;4.386;2022-07-29T06:30:55;9.13;;;3.25;;
39674;SDS011;27790;50.840;4.386;2022-07-29T06:33:21;7.35;;;3.17;;
39674;SDS011;27790;50.840;4.386;2022-07-29T06:35:46;4.18;;;3.42;;
39674;SDS011;27790;50.840;4.386;2022-07-29T06:38:12;7.05;;;3.20;;
39674;SDS011;27790;50.840;4.386;2022-07-29T06:40:44;4.10;;;3.00;;
39674;SDS011;27790;50.840;4.386;2022-07-29T06:43:20;6.45;;;2.83;;
39674;SDS011;27790;50.840;4.386;2022-07-29T06:45:46;5.43;;;3.47;;
39674;SDS011;27790;50.840;4.386;2022-07-29T06:48:11;5.65;;;3.20;;
39674;SDS011;27790;50.840;4.386;2022-07-29T06:50:37;4.47;;;3.15;;
39674;SDS011;27790;50.840;4.386;2022-07-29T06:53:03;5.88;;;3.28;;
39674;SDS011;27790;50.840;4.386;2022-07-29T06:55:29;8.95;;;3.30;;
39674;SDS011;27790;50.840;4.386;2022-07-29T06:57:54;8.48;;;2.70;;
39674;SDS011;27790;50.840;4.386;2022-07-29T07:00:20;8.00;;;2.90;;
39674;SDS011;27790;50.840;4.386;2022-07-29T07:02:45;10.52;;;3.95;;
39674;SDS011;27790;50.840;4.386;2022-07-29T07:05:11;9.93;;;3.47;;
39674;SDS011;27790;50.840;4.386;2022-07-29T07:07:36;5.57;;;2.95;;
39674;SDS011;27790;50.840;4.386;2022-07-29T07:10:02;3.55;;;2.88;;
39674;SDS011;27790;50.840;4.386;2022-07-29T07:12:28;8.70;;;3.75;;
39674;SDS011;27790;50.840;4.386;2022-07-29T07:14:54;7.15;;;3.78;;
39674;SDS011;27790;50.840;4.386;2022-07-29T07:17:19;4.45;;;3.17;;
39674;SDS011;27790;50.840;4.386;2022-07-29T07:19:45;8.98;;;3.00;;
39674;SDS011;27790;50.840;4.386;2022-07-29T07:22:10;7.88;;;3.38;;
39674;SDS011;27790;50.840;4.386;2022-07-29T07:24:36;7.57;;;3.55;;
39674;SDS011;27790;50.840;4.386;2022-07-29T07:27:02;5.78;;;3.20;;
39674;SDS011;27790;50.840;4.386;2022-07-29T07:29:27;7.38;;;3.60;;
39674;SDS011;27790;50.840;4.386;2022-07-29T07:31:53;7.45;;;3.10;;
39674;SDS011;27790;50.840;4.386;2022-07-29T07:34:20;5.05;;;3.08;;
39674;SDS011;27790;50.840;4.386;2022-07-29T07:36:45;7.13;;;3.10;;
39674;SDS011;27790;50.840;4.386;2022-07-29T07:39:11;3.35;;;3.13;;
39674;SDS011;27790;50.840;4.386;2022-07-29T07:41:36;7.15;;;3.95;;
39674;SDS011;27790;50.840;4.386;2022-07-29T07:44:02;5.80;;;2.90;;
39674;SDS011;27790;50.840;4.386;2022-07-29T07:46:27;8.48;;;3.28;;
39674;SDS011;27790;50.840;4.386;2022-07-29T07:48:53;8.38;;;3.38;;
39674;SDS011;27790;50.840;4.386;2022-07-29T07:51:19;12.70;;;4.30;;
39674;SDS011;27790;50.840;4.386;2022-07-29T07:53:44;9.98;;;3.90;;
39674;SDS011;27790;50.840;4.386;2022-07-29T07:56:14;8.00;;;4.03;;
39674;SDS011;27790;50.840;4.386;2022-07-29T07:58:40;11.30;;;4.47;;
39674;SDS011;27790;50.840;4.386;2022-07-29T08:01:06;8.20;;;4.47;;
39674;SDS011;27790;50.840;4.386;2022-07-29T08:03:32;10.23;;;4.72;;
39674;SDS011;27790;50.840;4.386;2022-07-29T08:05:58;11.07;;;4.70;;
39674;SDS011;27790;50.840;4.386;2022-07-29T08:08:24;10.95;;;4.50;;
39674;SDS011;27790;50.840;4.386;2022-07-29T08:10:49;8.50;;;4.70;;
39674;SDS011;27790;50.840;4.386;2022-07-29T08:13:19;6.28;;;4.28;;
39674;SDS011;27790;50.840;4.386;2022-07-29T08:15:46;6.82;;;3.72;;
39674;SDS011;27790;50.840;4.386;2022-07-29T08:18:12;7.00;;;3.60;;
39674;SDS011;27790;50.840;4.386;2022-07-29T08:20:38;7.63;;;3.67;;
39674;SDS011;27790;50.840;4.386;2022-07-29T08:23:05;5.18;;;3.13;;
39674;SDS011;27790;50.840;4.386;2022-07-29T08:25:33;4.50;;;3.10;;
39674;SDS011;27790;50.840;4.386;2022-07-29T08:28:00;9.15;;;3.20;;
39674;SDS011;27790;50.840;4.386;2022-07-29T08:30:26;6.00;;;3.40;;
39674;SDS011;27790;50.840;4.386;2022-07-29T08:32:52;5.10;;;3.13;;
39674;SDS011;27790;50.840;4.386;2022-07-29T08:35:18;5.72;;;3.30;;
39674;SDS011;27790;50.840;4.386;2022-07-29T08:37:44;5.93;;;3.28;;
39674;SDS011;27790;50.840;4.386;2022-07-29T08:40:10;3.83;;;2.78;;
39674;SDS011;27790;50.840;4.386;2022-07-29T08:42:36;4.93;;;2.95;;
39674;SDS011;27790;50.840;4.386;2022-07-29T08:45:03;3.45;;;2.90;;
39674;SDS011;27790;50.840;4.386;2022-07-29T08:47:30;4.45;;;3.05;;
39674;SDS011;27790;50.840;4.386;2022-07-29T08:49:55;3.28;;;2.97;;
39674;SDS011;27790;50.840;4.386;2022-07-29T08:52:21;6.43;;;3.22;;
39674;SDS011;27790;50.840;4.386;2022-07-29T08:54:50;5.60;;;2.92;;
39674;SDS011;27790;50.840;4.386;2022-07-29T08:57:17;7.00;;;3.08;;
39674;SDS011;27790;50.840;4.386;2022-07-29T08:59:44;6.15;;;2.83;;
39674;SDS011;27790;50.840;4.386;2022-07-29T09:02:15;4.80;;;2.92;;
39674;SDS011;27790;50.840;4.386;2022-07-29T09:04:45;7.80;;;2.80;;
39674;SDS011;27790;50.840;4.386;2022-07-29T09:07:11;9.23;;;2.55;;
39674;SDS011;27790;50.840;4.386;2022-07-29T09:09:40;5.05;;;2.40;;
39674;SDS011;27790;50.840;4.386;2022-07-29T09:12:06;3.67;;;2.20;;
39674;SDS011;27790;50.840;4.386;2022-07-29T09:14:33;3.20;;;2.58;;
39674;SDS011;27790;50.840;4.386;2022-07-29T09:16:58;3.70;;;2.40;;
39674;SDS011;27790;50.840;4.386;2022-07-29T09:19:28;4.70;;;3.65;;
39674;SDS011;27790;50.840;4.386;2022-07-29T09:21:56;6.45;;;2.50;;
39674;SDS011;27790;50.840;4.386;2022-07-29T09:24:24;5.45;;;2.92;;
39674;SDS011;27790;50.840;4.386;2022-07-29T09:26:59;5.53;;;2.58;;
39674;SDS011;27790;50.840;4.386;2022-07-29T09:29:26;6.68;;;3.05;;
39674;SDS011;27790;50.840;4.386;2022-07-29T09:31:53;6.28;;;2.60;;
39674;SDS011;27790;50.840;4.386;2022-07-29T09:34:23;2.45;;;2.25;;
39674;SDS011;27790;50.840;4.386;2022-07-29T09:36:53;6.40;;;3.38;;
39674;SDS011;27790;50.840;4.386;2022-07-29T09:39:27;2.72;;;1.90;;
39674;SDS011;27790;50.840;4.386;2022-07-29T09:41:56;10.25;;;2.53;;
39674;SDS011;27790;50.840;4.386;2022-07-29T09:44:22;4.90;;;2.28;;
39674;SDS011;27790;50.840;4.386;2022-07-29T09:49:32;7.05;;;2.97;;
39674;SDS011;27790;50.840;4.386;2022-07-29T09:52:08;6.82;;;2.35;;
39674;SDS011;27790;50.840;4.386;2022-07-29T09:54:36;4.07;;;2.40;;
39674;SDS011;27790;50.840;4.386;2022-07-29T09:57:03;3.75;;;1.98;;
39674;SDS011;27790;50.840;4.386;2022-07-29T09:59:34;4.53;;;1.95;;
39674;SDS011;27790;50.840;4.386;2022-07-29T10:02:00;6.38;;;2.97;;
39674;SDS011;27790;50.840;4.386;2022-07-29T10:07:06;9.85;;;2.88;;
39674;SDS011;27790;50.840;4.386;2022-07-29T10:09:33;6.15;;;1.80;;
39674;SDS011;27790;50.840;4.386;2022-07-29T10:14:38;6.97;;;2.38;;
39674;SDS011;27790;50.840;4.386;2022-07-29T10:17:05;7.13;;;2.42;;
39674;SDS011;27790;50.840;4.386;2022-07-29T10:19:32;9.32;;;3.03;;
39674;SDS011;27790;50.840;4.386;2022-07-29T10:21:59;9.52;;;2.53;;
39674;SDS011;27790;50.840;4.386;2022-07-29T10:24:26;4.53;;;2.00;;
39674;SDS011;27790;50.840;4.386;2022-07-29T10:26:56;8.10;;;2.15;;
39674;SDS011;27790;50.840;4.386;2022-07-29T10:29:24;3.63;;;1.80;;
39674;SDS011;27790;50.840;4.386;2022-07-29T10:43:05;7.72;;;2.35;;
39674;SDS011;27790;50.840;4.386;2022-07-29T10:45:41;4.90;;;1.77;;
39674;SDS011;27790;50.840;4.386;2022-07-29T10:48:07;6.85;;;2.35;;
39674;SDS011;27790;50.840;4.386;2022-07-29T10:50:52;3.97;;;1.98;;
39674;SDS011;27790;50.840;4.386;2022-07-29T10:53:19;5.35;;;2.10;;
39674;SDS011;27790;50.840;4.386;2022-07-29T10:55:45;12.05;;;2.53;;
39674;SDS011;27790;50.840;4.386;2022-07-29T10:58:17;8.27;;;2.65;;
39674;SDS011;27790;50.840;4.386;2022-07-29T11:00:49;6.75;;;2.13;;
39674;SDS011;27790;50.840;4.386;2022-07-29T11:06:20;5.75;;;2.15;;
39674;SDS011;27790;50.840;4.386;2022-07-29T11:08:46;7.03;;;2.13;;
39674;SDS011;27790;50.840;4.386;2022-07-29T11:11:43;5.10;;;2.40;;
39674;SDS011;27790;50.840;4.386;2022-07-29T11:14:08;5.72;;;2.45;;
39674;SDS011;27790;50.840;4.386;2022-07-29T11:19:37;6.32;;;2.60;;
39674;SDS011;27790;50.840;4.386;2022-07-29T11:22:07;7.28;;;3.38;;
39674;SDS011;27790;50.840;4.386;2022-07-29T11:24:33;4.60;;;2.42;;
39674;SDS011;27790;50.840;4.386;2022-07-29T11:32:14;7.45;;;2.78;;
39674;SDS011;27790;50.840;4.386;2022-07-29T11:34:44;8.40;;;3.22;;
39674;SDS011;27790;50.840;4.386;2022-07-29T11:39:38;9.80;;;2.88;;
39674;SDS011;27790;50.840;4.386;2022-07-29T11:47:24;8.18;;;3.92;;
39674;SDS011;27790;50.840;4.386;2022-07-29T11:49:50;6.32;;;4.22;;
39674;SDS011;27790;50.840;4.386;2022-07-29T11:52:17;7.07;;;3.35;;
39674;SDS011;27790;50.840;4.386;2022-07-29T11:54:44;6.85;;;3.00;;
39674;SDS011;27790;50.840;4.386;2022-07-29T11:57:12;8.15;;;3.92;;
39674;SDS011;27790;50.840;4.386;2022-07-29T11:59:39;3.40;;;3.08;;
39674;SDS011;27790;50.840;4.386;2022-07-29T12:02:06;20.85;;;3.70;;
39674;SDS011;27790;50.840;4.386;2022-07-29T12:04:33;4.60;;;3.53;;
39674;SDS011;27790;50.840;4.386;2022-07-29T12:06:59;4.75;;;3.25;;
39674;SDS011;27790;50.840;4.386;2022-07-29T12:09:25;9.40;;;3.92;;
39674;SDS011;27790;50.840;4.386;2022-07-29T12:11:59;6.80;;;3.25;;
39674;SDS011;27790;50.840;4.386;2022-07-29T12:14:27;7.15;;;3.65;;
39674;SDS011;27790;50.840;4.386;2022-07-29T12:16:57;6.85;;;2.70;;
39674;SDS011;27790;50.840;4.386;2022-07-29T12:19:24;5.18;;;2.30;;
39674;SDS011;27790;50.840;4.386;2022-07-29T12:21:51;4.93;;;2.95;;
39674;SDS011;27790;50.840;4.386;2022-07-29T12:24:18;7.72;;;4.10;;
39674;SDS011;27790;50.840;4.386;2022-07-29T12:29:24;7.35;;;3.45;;
39674;SDS011;27790;50.840;4.386;2022-07-29T12:31:53;5.25;;;2.60;;
39674;SDS011;27790;50.840;4.386;2022-07-29T12:34:20;7.60;;;3.00;;
39674;SDS011;27790;50.840;4.386;2022-07-29T12:36:48;9.65;;;3.05;;
39674;SDS011;27790;50.840;4.386;2022-07-29T12:39:17;7.60;;;3.20;;
39674;SDS011;27790;50.840;4.386;2022-07-29T12:41:43;5.47;;;2.88;;
39674;SDS011;27790;50.840;4.386;2022-07-29T12:44:09;10.07;;;2.95;;
39674;SDS011;27790;50.840;4.386;2022-07-29T12:46:36;5.85;;;3.47;;
39674;SDS011;27790;50.840;4.386;2022-07-29T12:49:01;5.22;;;2.42;;
39674;SDS011;27790;50.840;4.386;2022-07-29T12:51:32;9.05;;;2.88;;
39674;SDS011;27790;50.840;4.386;2022-07-29T12:56:38;6.57;;;2.97;;
39674;SDS011;27790;50.840;4.386;2022-07-29T13:01:43;7.38;;;2.80;;
39674;SDS011;27790;50.840;4.386;2022-07-29T13:04:09;6.85;;;3.45;;
39674;SDS011;27790;50.840;4.386;2022-07-29T13:06:40;10.45;;;3.40;;
39674;SDS011;27790;50.840;4.386;2022-07-29T13:09:14;11.23;;;2.75;;
39674;SDS011;27790;50.840;4.386;2022-07-29T13:11:43;3.47;;;2.55;;
39674;SDS011;27790;50.840;4.386;2022-07-29T13:14:12;4.65;;;2.20;;
39674;SDS011;27790;50.840;4.386;2022-07-29T13:22:13;12.33;;;3.53;;
39674;SDS011;27790;50.840;4.386;2022-07-29T13:27:20;8.13;;;3.40;;
39674;SDS011;27790;50.840;4.386;2022-07-29T13:29:54;7.20;;;2.30;;
39674;SDS011;27790;50.840;4.386;2022-07-29T13:32:24;7.55;;;2.38;;
39674;SDS011;27790;50.840;4.386;2022-07-29T13:34:52;4.07;;;2.10;;
39674;SDS011;27790;50.840;4.386;2022-07-29T13:37:18;5.45;;;2.10;;
39674;SDS011;27790;50.840;4.386;2022-07-29T13:39:44;5.82;;;2.10;;
39674;SDS011;27790;50.840;4.386;2022-07-29T13:42:10;8.10;;;1.98;;
39674;SDS011;27790;50.840;4.386;2022-07-29T13:44:38;6.30;;;2.30;;
39674;SDS011;27790;50.840;4.386;2022-07-29T13:47:04;3.92;;;1.88;;
39674;SDS011;27790;50.840;4.386;2022-07-29T13:49:30;3.03;;;1.90;;
39674;SDS011;27790;50.840;4.386;2022-07-29T13:51:56;2.30;;;2.10;;
39674;SDS011;27790;50.840;4.386;2022-07-29T13:54:22;6.32;;;2.03;;
39674;SDS011;27790;50.840;4.386;2022-07-29T13:56:49;7.72;;;2.10;;
39674;SDS011;27790;50.840;4.386;2022-07-29T13:59:15;3.90;;;2.60;;
39674;SDS011;27790;50.840;4.386;2022-07-29T14:01:40;4.78;;;2.58;;
39674;SDS011;27790;50.840;4.386;2022-07-29T14:04:07;4.88;;;2.20;;
39674;SDS011;27790;50.840;4.386;2022-07-29T14:06:33;6.35;;;1.58;;
39674;SDS011;27790;50.840;4.386;2022-07-29T14:08:59;6.15;;;2.03;;
39674;SDS011;27790;50.840;4.386;2022-07-29T14:11:25;9.05;;;2.00;;
39674;SDS011;27790;50.840;4.386;2022-07-29T14:13:50;6.00;;;1.70;;
39674;SDS011;27790;50.840;4.386;2022-07-29T14:16:16;5.18;;;2.35;;
39674;SDS011;27790;50.840;4.386;2022-07-29T14:18:42;4.15;;;1.83;;
39674;SDS011;27790;50.840;4.386;2022-07-29T14:21:07;6.97;;;1.48;;
39674;SDS011;27790;50.840;4.386;2022-07-29T14:23:33;6.80;;;1.77;;
39674;SDS011;27790;50.840;4.386;2022-07-29T14:25:59;4.22;;;1.55;;
39674;SDS011;27790;50.840;4.386;2022-07-29T14:28:25;9.85;;;2.13;;
39674;SDS011;27790;50.840;4.386;2022-07-29T14:30:51;7.18;;;2.13;;
39674;SDS011;27790;50.840;4.386;2022-07-29T14:33:17;9.05;;;2.40;;
39674;SDS011;27790;50.840;4.386;2022-07-29T14:35:42;4.25;;;1.75;;
39674;SDS011;27790;50.840;4.386;2022-07-29T14:38:11;5.70;;;2.40;;
39674;SDS011;27790;50.840;4.386;2022-07-29T14:40:37;5.50;;;1.80;;
39674;SDS011;27790;50.840;4.386;2022-07-29T14:43:03;8.38;;;4.30;;
39674;SDS011;27790;50.840;4.386;2022-07-29T14:45:28;3.92;;;1.40;;
39674;SDS011;27790;50.840;4.386;2022-07-29T14:47:54;6.05;;;2.00;;
39674;SDS011;27790;50.840;4.386;2022-07-29T14:50:20;8.32;;;2.10;;
39674;SDS011;27790;50.840;4.386;2022-07-29T14:52:45;2.70;;;1.65;;
39674;SDS011;27790;50.840;4.386;2022-07-29T14:55:11;5.78;;;1.67;;
39674;SDS011;27790;50.840;4.386;2022-07-29T14:57:37;4.32;;;1.98;;
39674;SDS011;27790;50.840;4.386;2022-07-29T15:00:03;4.80;;;2.20;;
39674;SDS011;27790;50.840;4.386;2022-07-29T15:02:31;3.35;;;1.73;;
39674;SDS011;27790;50.840;4.386;2022-07-29T15:04:57;4.93;;;2.33;;
39674;SDS011;27790;50.840;4.386;2022-07-29T15:07:23;7.00;;;1.75;;
39674;SDS011;27790;50.840;4.386;2022-07-29T15:09:48;3.38;;;1.85;;
39674;SDS011;27790;50.840;4.386;2022-07-29T15:12:14;8.23;;;3.03;;
39674;SDS011;27790;50.840;4.386;2022-07-29T15:14:40;5.82;;;2.30;;
39674;SDS011;27790;50.840;4.386;2022-07-29T15:17:06;6.10;;;2.28;;
39674;SDS011;27790;50.840;4.386;2022-07-29T15:19:31;3.65;;;2.05;;
39674;SDS011;27790;50.840;4.386;2022-07-29T15:21:57;4.85;;;2.15;;
39674;SDS011;27790;50.840;4.386;2022-07-29T15:24:23;3.28;;;1.98;;
39674;SDS011;27790;50.840;4.386;2022-07-29T15:26:48;3.67;;;1.77;;
39674;SDS011;27790;50.840;4.386;2022-07-29T15:29:14;10.70;;;2.80;;
39674;SDS011;27790;50.840;4.386;2022-07-29T15:31:40;7.78;;;1.92;;
39674;SDS011;27790;50.840;4.386;2022-07-29T15:34:06;8.15;;;2.15;;
39674;SDS011;27790;50.840;4.386;2022-07-29T15:36:31;6.25;;;2.67;;
39674;SDS011;27790;50.840;4.386;2022-07-29T15:38:57;5.85;;;2.60;;
39674;SDS011;27790;50.840;4.386;2022-07-29T15:41:22;5.30;;;2.13;;
39674;SDS011;27790;50.840;4.386;2022-07-29T15:43:48;4.68;;;2.00;;
39674;SDS011;27790;50.840;4.386;2022-07-29T15:46:16;4.03;;;1.88;;
39674;SDS011;27790;50.840;4.386;2022-07-29T15:48:52;2.78;;;2.20;;
39674;SDS011;27790;50.840;4.386;2022-07-29T15:51:18;14.50;;;3.15;;
39674;SDS011;27790;50.840;4.386;2022-07-29T15:53:44;5.15;;;2.20;;
39674;SDS011;27790;50.840;4.386;2022-07-29T15:56:09;5.63;;;2.60;;
39674;SDS011;27790;50.840;4.386;2022-07-29T15:58:35;5.90;;;2.83;;